sensor_id;sensor_type;location;lat;lon;timestamp;pressure;altitude;pressure_sealevel;temperature;humidity
24788;BME280;12883;52.662;5.196;2023-04-25T00:01:44;100782.69;;;4.97;100.00
24788;BME280;12883;52.662;5.196;2023-04-25T00:04:10;101097.06;;;6.79;100.00
24788;BME280;12883;52.662;5.196;2023-04-25T00:06:36;100712.84;;;4.39;100.00
24788;BME280;12883;52.662;5.196;2023-04-25T00:09:03;101132.66;;;6.59;100.00
24788;BME280;12883;52.662;5.196;2023-04-25T00:11:29;100971.00;;;6.12;100.00
24788;BME280;12883;52.662;5.196;2023-04-25T00:13:56;100889.72;;;5.61;100.00
24788;BME280;12883;52.662;5.196;2023-04-25T00:16:22;100693.63;;;4.31;100.00
24788;BME280;12883;52.662;5.196;2023-04-25T00:18:48;101108.56;;;6.94;100.00
24788;BME280;12883;52.662;5.196;2023-04-25T00:21:17;101051.75;;;6.67;100.00
24788;BME280;12883;52.662;5.196;2023-04-25T00:23:43;100980.84;;;6.18;100.00
24788;BME280;12883;52.662;5.196;2023-04-25T00:26:08;100930.66;;;5.71;100.00
24788;BME280;12883;52.662;5.196;2023-04-25T00:28:34;101121.28;;;6.98;100.00
24788;BME280;12883;52.662;5.196;2023-04-25T00:30:59;101130.47;;;7.02;100.00
24788;BME280;12883;52.662;5.196;2023-04-25T00:33:25;100939.75;;;5.93;100.00
24788;BME280;12883;52.662;5.196;2023-04-25T00:35:50;100921.31;;;5.85;100.00
24788;BME280;12883;52.662;5.196;2023-04-25T00:38:15;101001.94;;;6.34;100.00
24788;BME280;12883;52.662;5.196;2023-04-25T00:40:41;101016.88;;;6.49;100.00
24788;BME280;12883;52.662;5.196;2023-04-25T00:43:08;101145.97;;;6.97;100.00
24788;BME280;12883;52.662;5.196;2023-04-25T00:45:37;101110.59;;;6.68;100.00
24788;BME280;12883;52.662;5.196;2023-04-25T00:48:04;101149.66;;;6.40;100.00
24788;BME280;12883;52.662;5.196;2023-04-25T00:50:29;101034.69;;;6.39;100.00
24788;BME280;12883;52.662;5.196;2023-04-25T00:52:55;101036.34;;;6.00;100.00
24788;BME280;12883;52.662;5.196;2023-04-25T00:55:20;101086.38;;;6.48;100.00
24788;BME280;12883;52.662;5.196;2023-04-25T00:57:46;100724.81;;;4.26;100.00
24788;BME280;12883;52.662;5.196;2023-04-25T01:00:12;100935.66;;;4.93;100.00
24788;BME280;12883;52.662;5.196;2023-04-25T01:02:40;101062.84;;;6.23;100.00
24788;BME280;12883;52.662;5.196;2023-04-25T01:05:05;100742.91;;;4.45;100.00
24788;BME280;12883;52.662;5.196;2023-04-25T01:07:31;100834.13;;;4.35;100.00
24788;BME280;12883;52.662;5.196;2023-04-25T01:09:56;101028.78;;;6.05;100.00
24788;BME280;12883;52.662;5.196;2023-04-25T01:12:22;100993.50;;;5.66;100.00
24788;BME280;12883;52.662;5.196;2023-04-25T01:14:48;101022.53;;;5.90;100.00
24788;BME280;12883;52.662;5.196;2023-04-25T01:17:13;100837.88;;;4.73;100.00
24788;BME280;12883;52.662;5.196;2023-04-25T01:19:40;101111.94;;;6.48;100.00
24788;BME280;12883;52.662;5.196;2023-04-25T01:22:06;100670.88;;;3.40;100.00
24788;BME280;12883;52.662;5.196;2023-04-25T01:24:32;101057.28;;;5.44;100.00
24788;BME280;12883;52.662;5.196;2023-04-25T01:26:58;101140.44;;;6.52;100.00
24788;BME280;12883;52.662;5.196;2023-04-25T01:29:26;101135.63;;;6.32;100.00
24788;BME280;12883;52.662;5.196;2023-04-25T01:31:52;101076.53;;;6.18;100.00
24788;BME280;12883;52.662;5.196;2023-04-25T01:34:18;101118.19;;;6.31;100.00
24788;BME280;12883;52.662;5.196;2023-04-25T01:36:44;101129.56;;;6.39;100.00
24788;BME280;12883;52.662;5.196;2023-04-25T01:39:09;101087.38;;;5.99;100.00
24788;BME280;12883;52.662;5.196;2023-04-25T01:41:35;101132.50;;;6.28;100.00
24788;BME280;12883;52.662;5.196;2023-04-25T01:44:01;101154.91;;;6.32;100.00
24788;BME280;12883;52.662;5.196;2023-04-25T01:46:27;101142.22;;;6.28;100.00
24788;BME280;12883;52.662;5.196;2023-04-25T01:48:53;100957.06;;;5.14;100.00
24788;BME280;12883;52.662;5.196;2023-04-25T01:51:18;101088.66;;;5.79;100.00
24788;BME280;12883;52.662;5.196;2023-04-25T01:53:44;101035.63;;;5.66;100.00
24788;BME280;12883;52.662;5.196;2023-04-25T01:56:10;100897.53;;;4.89;100.00
24788;BME280;12883;52.662;5.196;2023-04-25T01:58:35;101091.00;;;6.06;100.00
24788;BME280;12883;52.662;5.196;2023-04-25T02:01:00;101081.75;;;5.94;100.00
24788;BME280;12883;52.662;5.196;2023-04-25T02:03:26;101019.13;;;5.32;100.00
24788;BME280;12883;52.662;5.196;2023-04-25T02:05:51;101145.66;;;6.28;100.00
24788;BME280;12883;52.662;5.196;2023-04-25T02:08:17;101075.78;;;5.76;100.00
24788;BME280;12883;52.662;5.196;2023-04-25T02:10:43;101158.53;;;6.39;100.00
24788;BME280;12883;52.662;5.196;2023-04-25T02:13:09;101056.38;;;5.77;100.00
24788;BME280;12883;52.662;5.196;2023-04-25T02:15:34;101117.69;;;6.11;100.00
24788;BME280;12883;52.662;5.196;2023-04-25T02:18:00;101077.53;;;5.52;100.00
24788;BME280;12883;52.662;5.196;2023-04-25T02:20:26;101132.50;;;6.28;100.00
24788;BME280;12883;52.662;5.196;2023-04-25T02:22:52;101056.16;;;5.63;100.00
24788;BME280;12883;52.662;5.196;2023-04-25T02:25:19;101116.38;;;6.15;100.00
24788;BME280;12883;52.662;5.196;2023-04-25T02:27:45;101162.00;;;6.48;100.00
24788;BME280;12883;52.662;5.196;2023-04-25T02:30:12;101176.63;;;6.10;100.00
24788;BME280;12883;52.662;5.196;2023-04-25T02:32:38;101168.28;;;6.55;100.00
24788;BME280;12883;52.662;5.196;2023-04-25T02:35:04;101061.38;;;5.96;100.00
24788;BME280;12883;52.662;5.196;2023-04-25T02:37:31;101160.84;;;6.34;100.00
24788;BME280;12883;52.662;5.196;2023-04-25T02:39:56;101093.56;;;5.74;100.00
24788;BME280;12883;52.662;5.196;2023-04-25T02:42:22;101158.84;;;6.20;100.00
24788;BME280;12883;52.662;5.196;2023-04-25T02:44:47;100841.06;;;4.36;100.00
24788;BME280;12883;52.662;5.196;2023-04-25T02:47:12;101060.13;;;5.51;100.00
24788;BME280;12883;52.662;5.196;2023-04-25T02:49:38;100759.47;;;3.88;100.00
24788;BME280;12883;52.662;5.196;2023-04-25T02:52:03;100972.47;;;4.26;100.00
24788;BME280;12883;52.662;5.196;2023-04-25T02:54:29;100761.53;;;3.76;100.00
24788;BME280;12883;52.662;5.196;2023-04-25T02:56:55;101185.38;;;6.19;100.00
24788;BME280;12883;52.662;5.196;2023-04-25T02:59:20;101109.66;;;5.71;100.00
24788;BME280;12883;52.662;5.196;2023-04-25T03:01:46;101137.91;;;6.11;100.00
24788;BME280;12883;52.662;5.196;2023-04-25T03:04:11;101097.84;;;5.75;100.00
24788;BME280;12883;52.662;5.196;2023-04-25T03:06:36;101086.69;;;5.81;100.00
24788;BME280;12883;52.662;5.196;2023-04-25T03:09:02;101046.72;;;5.36;100.00
24788;BME280;12883;52.662;5.196;2023-04-25T03:11:27;101048.72;;;5.42;100.00
24788;BME280;12883;52.662;5.196;2023-04-25T03:13:52;101158.66;;;5.98;100.00
24788;BME280;12883;52.662;5.196;2023-04-25T03:16:18;101165.25;;;6.10;100.00
24788;BME280;12883;52.662;5.196;2023-04-25T03:18:43;101182.38;;;6.14;100.00
24788;BME280;12883;52.662;5.196;2023-04-25T03:21:08;101131.97;;;5.85;100.00
24788;BME280;12883;52.662;5.196;2023-04-25T03:23:34;101199.69;;;6.24;100.00
24788;BME280;12883;52.662;5.196;2023-04-25T03:25:59;101170.84;;;5.99;100.00
24788;BME280;12883;52.662;5.196;2023-04-25T03:28:25;101157.84;;;6.13;100.00
24788;BME280;12883;52.662;5.196;2023-04-25T03:30:51;101207.97;;;6.45;100.00
24788;BME280;12883;52.662;5.196;2023-04-25T03:33:16;101154.91;;;6.08;100.00
24788;BME280;12883;52.662;5.196;2023-04-25T03:35:41;101078.22;;;5.62;100.00
24788;BME280;12883;52.662;5.196;2023-04-25T03:38:07;101236.31;;;6.43;100.00
24788;BME280;12883;52.662;5.196;2023-04-25T03:40:33;101189.13;;;6.08;100.00
24788;BME280;12883;52.662;5.196;2023-04-25T03:42:58;101160.81;;;6.10;100.00
24788;BME280;12883;52.662;5.196;2023-04-25T03:45:24;101121.84;;;5.72;100.00
24788;BME280;12883;52.662;5.196;2023-04-25T03:47:49;101100.09;;;5.62;100.00
24788;BME280;12883;52.662;5.196;2023-04-25T03:50:15;101219.31;;;6.30;100.00
24788;BME280;12883;52.662;5.196;2023-04-25T03:52:40;101110.31;;;5.65;100.00
24788;BME280;12883;52.662;5.196;2023-04-25T03:55:06;101184.19;;;6.05;100.00
24788;BME280;12883;52.662;5.196;2023-04-25T03:57:32;101175.09;;;5.92;100.00
24788;BME280;12883;52.662;5.196;2023-04-25T03:59:57;101159.66;;;6.05;100.00
24788;BME280;12883;52.662;5.196;2023-04-25T04:02:22;101125.78;;;5.68;100.00
24788;BME280;12883;52.662;5.196;2023-04-25T04:04:48;101114.44;;;5.68;100.00
24788;BME280;12883;52.662;5.196;2023-04-25T04:07:13;101093.84;;;5.55;100.00
24788;BME280;12883;52.662;5.196;2023-04-25T04:09:38;101218.50;;;6.37;100.00
24788;BME280;12883;52.662;5.196;2023-04-25T04:12:04;101230.28;;;6.09;100.00
24788;BME280;12883;52.662;5.196;2023-04-25T04:14:29;101158.09;;;5.86;100.00
24788;BME280;12883;52.662;5.196;2023-04-25T04:16:55;101179.41;;;6.01;100.00
24788;BME280;12883;52.662;5.196;2023-04-25T04:19:20;101227.34;;;6.28;100.00
24788;BME280;12883;52.662;5.196;2023-04-25T04:21:45;101015.31;;;4.85;100.00
24788;BME280;12883;52.662;5.196;2023-04-25T04:24:11;101233.63;;;6.27;100.00
24788;BME280;12883;52.662;5.196;2023-04-25T04:26:36;101111.41;;;5.55;100.00
24788;BME280;12883;52.662;5.196;2023-04-25T04:29:02;101227.03;;;6.15;100.00
24788;BME280;12883;52.662;5.196;2023-04-25T04:31:29;101235.88;;;6.06;100.00
24788;BME280;12883;52.662;5.196;2023-04-25T04:33:55;101242.16;;;6.21;100.00
24788;BME280;12883;52.662;5.196;2023-04-25T04:36:20;101245.47;;;6.15;100.00
24788;BME280;12883;52.662;5.196;2023-04-25T04:38:47;101284.91;;;6.07;100.00
24788;BME280;12883;52.662;5.196;2023-04-25T04:41:12;101248.56;;;6.11;100.00
24788;BME280;12883;52.662;5.196;2023-04-25T04:43:38;101205.69;;;5.59;100.00
24788;BME280;12883;52.662;5.196;2023-04-25T04:46:04;101253.47;;;5.98;100.00
24788;BME280;12883;52.662;5.196;2023-04-25T04:48:31;101204.50;;;5.20;100.00
24788;BME280;12883;52.662;5.196;2023-04-25T04:51:00;101257.38;;;5.94;100.00
24788;BME280;12883;52.662;5.196;2023-04-25T04:53:25;101176.44;;;5.29;100.00
24788;BME280;12883;52.662;5.196;2023-04-25T04:55:51;101235.34;;;5.36;100.00
24788;BME280;12883;52.662;5.196;2023-04-25T04:58:16;101251.44;;;5.66;100.00
24788;BME280;12883;52.662;5.196;2023-04-25T05:00:42;101135.16;;;4.96;100.00
24788;BME280;12883;52.662;5.196;2023-04-25T05:03:07;101032.88;;;4.52;100.00
24788;BME280;12883;52.662;5.196;2023-04-25T05:05:33;101246.03;;;5.68;100.00
24788;BME280;12883;52.662;5.196;2023-04-25T05:07:58;101127.78;;;4.99;100.00
24788;BME280;12883;52.662;5.196;2023-04-25T05:10:24;101241.63;;;5.68;100.00
24788;BME280;12883;52.662;5.196;2023-04-25T05:12:49;101194.69;;;5.30;100.00
24788;BME280;12883;52.662;5.196;2023-04-25T05:15:14;101062.19;;;4.22;100.00
24788;BME280;12883;52.662;5.196;2023-04-25T05:17:40;101188.19;;;5.42;100.00
24788;BME280;12883;52.662;5.196;2023-04-25T05:20:07;101316.81;;;5.96;100.00
24788;BME280;12883;52.662;5.196;2023-04-25T05:22:34;101239.97;;;5.67;100.00
24788;BME280;12883;52.662;5.196;2023-04-25T05:24:59;101202.31;;;5.41;100.00
24788;BME280;12883;52.662;5.196;2023-04-25T05:27:24;101209.59;;;5.47;100.00
24788;BME280;12883;52.662;5.196;2023-04-25T05:29:50;101235.81;;;5.57;100.00
24788;BME280;12883;52.662;5.196;2023-04-25T05:32:16;101247.13;;;5.57;100.00
24788;BME280;12883;52.662;5.196;2023-04-25T05:34:41;101283.22;;;5.90;100.00
24788;BME280;12883;52.662;5.196;2023-04-25T05:37:07;101210.50;;;5.38;100.00
24788;BME280;12883;52.662;5.196;2023-04-25T05:39:32;101205.94;;;5.40;100.00
24788;BME280;12883;52.662;5.196;2023-04-25T05:41:58;101290.09;;;5.83;100.00
24788;BME280;12883;52.662;5.196;2023-04-25T05:44:23;101285.19;;;5.88;100.00
24788;BME280;12883;52.662;5.196;2023-04-25T05:46:49;101250.09;;;5.80;100.00
24788;BME280;12883;52.662;5.196;2023-04-25T05:49:14;100946.56;;;4.06;100.00
24788;BME280;12883;52.662;5.196;2023-04-25T05:51:40;101333.31;;;6.40;100.00
24788;BME280;12883;52.662;5.196;2023-04-25T05:54:05;101323.09;;;6.45;100.00
24788;BME280;12883;52.662;5.196;2023-04-25T05:56:31;101223.19;;;5.68;100.00
24788;BME280;12883;52.662;5.196;2023-04-25T05:58:56;101172.66;;;5.65;100.00
24788;BME280;12883;52.662;5.196;2023-04-25T06:01:22;101233.66;;;5.86;100.00
24788;BME280;12883;52.662;5.196;2023-04-25T06:03:48;101313.19;;;6.39;100.00
24788;BME280;12883;52.662;5.196;2023-04-25T06:06:13;101230.47;;;6.16;100.00
24788;BME280;12883;52.662;5.196;2023-04-25T06:08:39;101082.53;;;4.62;100.00
24788;BME280;12883;52.662;5.196;2023-04-25T06:11:04;101296.81;;;6.11;100.00
24788;BME280;12883;52.662;5.196;2023-04-25T06:13:30;100688.72;;;2.86;100.00
24788;BME280;12883;52.662;5.196;2023-04-25T06:15:55;101286.56;;;6.50;100.00
24788;BME280;12883;52.662;5.196;2023-04-25T06:18:20;101099.97;;;4.89;100.00
24788;BME280;12883;52.662;5.196;2023-04-25T06:20:46;101299.97;;;6.23;100.00
24788;BME280;12883;52.662;5.196;2023-04-25T06:23:11;100954.72;;;4.53;100.00
24788;BME280;12883;52.662;5.196;2023-04-25T06:25:37;101304.88;;;6.59;100.00
24788;BME280;12883;52.662;5.196;2023-04-25T06:28:02;101194.22;;;6.10;100.00
24788;BME280;12883;52.662;5.196;2023-04-25T06:30:27;101151.69;;;5.81;100.00
24788;BME280;12883;52.662;5.196;2023-04-25T06:32:53;101259.69;;;6.46;100.00
24788;BME280;12883;52.662;5.196;2023-04-25T06:35:18;101405.81;;;6.93;100.00
24788;BME280;12883;52.662;5.196;2023-04-25T06:37:44;101300.41;;;6.60;100.00
24788;BME280;12883;52.662;5.196;2023-04-25T06:40:09;101376.16;;;7.07;100.00
24788;BME280;12883;52.662;5.196;2023-04-25T06:42:35;101261.66;;;6.44;100.00
24788;BME280;12883;52.662;5.196;2023-04-25T06:45:00;101360.59;;;6.64;100.00
24788;BME280;12883;52.662;5.196;2023-04-25T06:47:26;101381.38;;;6.75;100.00
24788;BME280;12883;52.662;5.196;2023-04-25T06:49:51;101307.97;;;6.05;100.00
24788;BME280;12883;52.662;5.196;2023-04-25T06:52:17;101262.84;;;6.00;100.00
24788;BME280;12883;52.662;5.196;2023-04-25T06:54:43;100917.38;;;3.83;100.00
24788;BME280;12883;52.662;5.196;2023-04-25T06:57:08;101348.69;;;6.60;100.00
24788;BME280;12883;52.662;5.196;2023-04-25T06:59:34;101291.56;;;6.19;100.00
24788;BME280;12883;52.662;5.196;2023-04-25T07:01:59;101289.81;;;6.36;100.00
24788;BME280;12883;52.662;5.196;2023-04-25T07:04:24;101355.00;;;6.75;100.00
24788;BME280;12883;52.662;5.196;2023-04-25T07:06:50;101247.03;;;6.00;100.00
24788;BME280;12883;52.662;5.196;2023-04-25T07:09:15;101505.31;;;6.75;100.00
24788;BME280;12883;52.662;5.196;2023-04-25T07:11:41;101395.63;;;6.98;100.00
24788;BME280;12883;52.662;5.196;2023-04-25T07:14:06;101295.91;;;6.36;100.00
24788;BME280;12883;52.662;5.196;2023-04-25T07:16:32;101391.31;;;6.97;100.00
24788;BME280;12883;52.662;5.196;2023-04-25T07:18:57;101426.53;;;7.38;100.00
24788;BME280;12883;52.662;5.196;2023-04-25T07:21:23;101356.38;;;7.11;100.00
24788;BME280;12883;52.662;5.196;2023-04-25T07:23:48;101415.78;;;7.71;100.00
24788;BME280;12883;52.662;5.196;2023-04-25T07:26:13;101246.88;;;6.83;100.00
24788;BME280;12883;52.662;5.196;2023-04-25T07:28:39;101174.84;;;6.59;100.00
24788;BME280;12883;52.662;5.196;2023-04-25T07:31:04;101419.72;;;8.07;100.00
24788;BME280;12883;52.662;5.196;2023-04-25T07:33:30;100957.28;;;5.44;100.00
24788;BME280;12883;52.662;5.196;2023-04-25T07:35:56;101418.69;;;8.32;100.00
24788;BME280;12883;52.662;5.196;2023-04-25T07:38:21;101396.28;;;7.96;100.00
24788;BME280;12883;52.662;5.196;2023-04-25T07:40:48;101191.50;;;6.83;100.00
24788;BME280;12883;52.662;5.196;2023-04-25T07:43:13;101397.31;;;7.63;100.00
24788;BME280;12883;52.662;5.196;2023-04-25T07:45:42;101439.19;;;8.22;100.00
24788;BME280;12883;52.662;5.196;2023-04-25T07:48:07;101330.94;;;7.82;100.00
24788;BME280;12883;52.662;5.196;2023-04-25T07:50:33;101315.56;;;7.86;100.00
24788;BME280;12883;52.662;5.196;2023-04-25T07:52:58;101384.00;;;8.27;100.00
24788;BME280;12883;52.662;5.196;2023-04-25T07:55:23;101346.53;;;8.16;100.00
24788;BME280;12883;52.662;5.196;2023-04-25T07:57:49;101355.28;;;8.16;100.00
24788;BME280;12883;52.662;5.196;2023-04-25T08:00:14;101450.72;;;8.45;100.00
24788;BME280;12883;52.662;5.196;2023-04-25T08:02:40;101448.25;;;8.82;100.00
24788;BME280;12883;52.662;5.196;2023-04-25T08:05:05;101440.84;;;8.78;100.00
24788;BME280;12883;52.662;5.196;2023-04-25T08:07:33;101117.84;;;6.58;100.00
24788;BME280;12883;52.662;5.196;2023-04-25T08:09:58;101312.72;;;8.03;100.00
24788;BME280;12883;52.662;5.196;2023-04-25T08:12:24;101475.31;;;9.00;100.00
24788;BME280;12883;52.662;5.196;2023-04-25T08:14:50;101486.38;;;9.04;100.00
24788;BME280;12883;52.662;5.196;2023-04-25T08:17:15;101348.25;;;7.93;100.00
24788;BME280;12883;52.662;5.196;2023-04-25T08:19:41;101455.28;;;8.67;100.00
24788;BME280;12883;52.662;5.196;2023-04-25T08:22:06;101480.06;;;8.74;100.00
24788;BME280;12883;52.662;5.196;2023-04-25T08:24:31;101324.72;;;7.43;100.00
24788;BME280;12883;52.662;5.196;2023-04-25T08:26:57;101400.22;;;8.00;100.00
24788;BME280;12883;52.662;5.196;2023-04-25T08:29:24;101449.75;;;8.38;100.00
24788;BME280;12883;52.662;5.196;2023-04-25T08:31:51;101411.78;;;8.07;100.00
24788;BME280;12883;52.662;5.196;2023-04-25T08:34:18;101529.09;;;8.93;100.00
24788;BME280;12883;52.662;5.196;2023-04-25T08:36:43;101459.69;;;8.83;100.00
24788;BME280;12883;52.662;5.196;2023-04-25T08:39:09;101320.78;;;8.02;100.00
24788;BME280;12883;52.662;5.196;2023-04-25T08:41:37;101316.03;;;7.97;100.00
24788;BME280;12883;52.662;5.196;2023-04-25T08:44:03;101505.19;;;9.09;100.00
24788;BME280;12883;52.662;5.196;2023-04-25T08:46:30;101526.56;;;9.07;100.00
24788;BME280;12883;52.662;5.196;2023-04-25T08:49:00;101561.06;;;8.75;100.00
24788;BME280;12883;52.662;5.196;2023-04-25T08:51:26;101549.72;;;9.05;100.00
24788;BME280;12883;52.662;5.196;2023-04-25T08:53:53;101451.03;;;8.42;100.00
24788;BME280;12883;52.662;5.196;2023-04-25T08:56:18;101475.53;;;8.44;100.00
24788;BME280;12883;52.662;5.196;2023-04-25T08:58:50;101504.56;;;8.60;100.00
24788;BME280;12883;52.662;5.196;2023-04-25T09:01:15;101549.13;;;8.95;100.00
24788;BME280;12883;52.662;5.196;2023-04-25T09:03:43;101567.13;;;9.00;100.00
24788;BME280;12883;52.662;5.196;2023-04-25T09:06:10;101429.94;;;8.26;100.00
24788;BME280;12883;52.662;5.196;2023-04-25T09:08:37;101511.66;;;8.76;100.00
24788;BME280;12883;52.662;5.196;2023-04-25T09:11:02;101486.88;;;8.69;100.00
24788;BME280;12883;52.662;5.196;2023-04-25T09:13:28;101568.38;;;9.20;100.00
24788;BME280;12883;52.662;5.196;2023-04-25T09:15:56;101552.88;;;9.01;100.00
24788;BME280;12883;52.662;5.196;2023-04-25T09:18:26;101525.31;;;8.87;100.00
24788;BME280;12883;52.662;5.196;2023-04-25T09:20:57;101560.41;;;9.28;100.00
24788;BME280;12883;52.662;5.196;2023-04-25T09:23:23;101417.63;;;8.57;100.00
24788;BME280;12883;52.662;5.196;2023-04-25T09:25:50;101562.00;;;9.67;100.00
24788;BME280;12883;52.662;5.196;2023-04-25T09:28:22;101593.53;;;9.62;100.00
24788;BME280;12883;52.662;5.196;2023-04-25T09:30:48;101487.69;;;9.38;100.00
24788;BME280;12883;52.662;5.196;2023-04-25T09:33:13;101522.09;;;9.91;100.00
24788;BME280;12883;52.662;5.196;2023-04-25T09:35:42;101554.38;;;9.94;100.00
24788;BME280;12883;52.662;5.196;2023-04-25T09:38:11;101557.81;;;9.50;100.00
24788;BME280;12883;52.662;5.196;2023-04-25T09:40:45;101443.66;;;8.76;100.00
24788;BME280;12883;52.662;5.196;2023-04-25T09:43:24;101499.63;;;9.34;100.00
24788;BME280;12883;52.662;5.196;2023-04-25T09:45:51;101598.00;;;10.14;100.00
24788;BME280;12883;52.662;5.196;2023-04-25T09:48:19;101505.72;;;9.87;100.00
24788;BME280;12883;52.662;5.196;2023-04-25T09:53:29;101588.81;;;10.25;100.00
24788;BME280;12883;52.662;5.196;2023-04-25T09:55:55;101510.69;;;9.68;100.00
24788;BME280;12883;52.662;5.196;2023-04-25T09:58:24;101531.16;;;9.74;100.00
24788;BME280;12883;52.662;5.196;2023-04-25T10:00:51;101366.50;;;8.65;100.00
24788;BME280;12883;52.662;5.196;2023-04-25T10:03:17;101637.13;;;10.12;100.00
24788;BME280;12883;52.662;5.196;2023-04-25T10:05:46;101561.25;;;9.58;100.00
24788;BME280;12883;52.662;5.196;2023-04-25T10:08:13;101489.03;;;9.34;100.00
24788;BME280;12883;52.662;5.196;2023-04-25T10:10:40;101379.19;;;8.69;100.00
24788;BME280;12883;52.662;5.196;2023-04-25T10:13:06;101628.38;;;10.12;100.00
24788;BME280;12883;52.662;5.196;2023-04-25T10:15:35;101534.34;;;9.47;100.00
24788;BME280;12883;52.662;5.196;2023-04-25T10:18:04;101615.66;;;9.99;100.00
24788;BME280;12883;52.662;5.196;2023-04-25T10:20:32;101529.97;;;9.54;100.00
24788;BME280;12883;52.662;5.196;2023-04-25T10:23:06;101624.47;;;9.92;100.00
24788;BME280;12883;52.662;5.196;2023-04-25T10:25:36;101564.91;;;9.49;100.00
24788;BME280;12883;52.662;5.196;2023-04-25T10:28:03;101621.13;;;9.98;100.00
24788;BME280;12883;52.662;5.196;2023-04-25T10:30:29;101625.72;;;10.12;100.00
24788;BME280;12883;52.662;5.196;2023-04-25T10:32:55;101576.94;;;9.60;100.00
24788;BME280;12883;52.662;5.196;2023-04-25T10:35:28;101631.44;;;9.93;100.00
24788;BME280;12883;52.662;5.196;2023-04-25T10:37:58;101486.09;;;9.29;100.00
24788;BME280;12883;52.662;5.196;2023-04-25T10:40:23;101635.63;;;10.18;100.00
24788;BME280;12883;52.662;5.196;2023-04-25T10:42:52;101551.94;;;9.32;100.00
24788;BME280;12883;52.662;5.196;2023-04-25T10:45:17;101596.78;;;9.94;100.00
24788;BME280;12883;52.662;5.196;2023-04-25T10:47:46;101570.09;;;10.04;99.34
24788;BME280;12883;52.662;5.196;2023-04-25T10:50:11;101608.72;;;10.21;100.00
24788;BME280;12883;52.662;5.196;2023-04-25T10:52:39;101551.88;;;9.70;100.00
24788;BME280;12883;52.662;5.196;2023-04-25T10:55:05;101603.84;;;10.02;100.00
24788;BME280;12883;52.662;5.196;2023-04-25T11:00:18;101629.59;;;10.24;100.00
24788;BME280;12883;52.662;5.196;2023-04-25T11:02:58;101656.41;;;10.29;100.00
24788;BME280;12883;52.662;5.196;2023-04-25T11:05:36;101678.34;;;10.23;100.00
24788;BME280;12883;52.662;5.196;2023-04-25T11:08:02;101474.38;;;8.93;100.00
24788;BME280;12883;52.662;5.196;2023-04-25T11:10:32;101551.06;;;9.70;100.00
24788;BME280;12883;52.662;5.196;2023-04-25T11:13:00;101648.16;;;10.46;100.00
24788;BME280;12883;52.662;5.196;2023-04-25T11:15:26;101458.91;;;9.35;100.00
24788;BME280;12883;52.662;5.196;2023-04-25T11:17:53;101612.25;;;10.36;100.00
24788;BME280;12883;52.662;5.196;2023-04-25T11:20:18;101497.47;;;9.60;100.00
24788;BME280;12883;52.662;5.196;2023-04-25T11:22:45;101676.94;;;10.94;100.00
24788;BME280;12883;52.662;5.196;2023-04-25T11:25:12;101672.00;;;10.91;100.00
24788;BME280;12883;52.662;5.196;2023-04-25T11:27:49;101332.75;;;8.36;100.00
24788;BME280;12883;52.662;5.196;2023-04-25T11:30:15;101405.81;;;8.76;100.00
24788;BME280;12883;52.662;5.196;2023-04-25T11:32:41;101569.72;;;9.54;100.00
24788;BME280;12883;52.662;5.196;2023-04-25T11:35:08;101647.44;;;9.77;100.00
24788;BME280;12883;52.662;5.196;2023-04-25T11:37:33;101585.31;;;9.49;100.00
24788;BME280;12883;52.662;5.196;2023-04-25T11:39:59;101672.44;;;10.13;100.00
24788;BME280;12883;52.662;5.196;2023-04-25T11:42:25;101548.53;;;9.46;100.00
24788;BME280;12883;52.662;5.196;2023-04-25T11:44:51;101649.41;;;10.13;100.00
24788;BME280;12883;52.662;5.196;2023-04-25T11:47:16;101581.66;;;9.80;100.00
24788;BME280;12883;52.662;5.196;2023-04-25T11:49:41;101530.94;;;9.61;100.00
24788;BME280;12883;52.662;5.196;2023-04-25T11:52:07;101331.13;;;8.27;100.00
24788;BME280;12883;52.662;5.196;2023-04-25T11:54:35;101332.63;;;8.30;100.00
24788;BME280;12883;52.662;5.196;2023-04-25T11:57:01;101278.63;;;8.16;100.00
24788;BME280;12883;52.662;5.196;2023-04-25T11:59:26;101600.97;;;9.89;100.00
24788;BME280;12883;52.662;5.196;2023-04-25T12:01:52;101642.97;;;10.08;96.57
24788;BME280;12883;52.662;5.196;2023-04-25T12:04:19;101682.78;;;10.53;97.46
24788;BME280;12883;52.662;5.196;2023-04-25T12:06:46;101688.88;;;10.08;95.58
24788;BME280;12883;52.662;5.196;2023-04-25T12:09:18;101672.75;;;10.18;94.16
24788;BME280;12883;52.662;5.196;2023-04-25T12:11:46;101679.50;;;10.51;95.57
24788;BME280;12883;52.662;5.196;2023-04-25T12:14:20;101586.34;;;9.93;95.86
24788;BME280;12883;52.662;5.196;2023-04-25T12:16:46;101632.91;;;10.48;100.00
24788;BME280;12883;52.662;5.196;2023-04-25T12:19:14;101630.66;;;10.37;100.00
24788;BME280;12883;52.662;5.196;2023-04-25T12:21:40;101648.69;;;10.42;97.34
24788;BME280;12883;52.662;5.196;2023-04-25T12:24:16;101695.97;;;10.61;92.28
24788;BME280;12883;52.662;5.196;2023-04-25T12:27:09;101651.78;;;10.31;94.49
24788;BME280;12883;52.662;5.196;2023-04-25T12:29:34;101625.13;;;9.94;94.88
24788;BME280;12883;52.662;5.196;2023-04-25T12:32:00;101667.78;;;10.37;99.19
24788;BME280;12883;52.662;5.196;2023-04-25T12:34:28;101621.13;;;10.28;97.75
24788;BME280;12883;52.662;5.196;2023-04-25T12:36:54;101514.06;;;8.93;97.21
24788;BME280;12883;52.662;5.196;2023-04-25T12:39:24;101665.63;;;10.63;96.39
24788;BME280;12883;52.662;5.196;2023-04-25T12:41:52;101597.56;;;10.48;95.83
24788;BME280;12883;52.662;5.196;2023-04-25T12:44:19;101623.03;;;10.57;89.83
24788;BME280;12883;52.662;5.196;2023-04-25T12:46:44;101710.66;;;10.94;93.74
24788;BME280;12883;52.662;5.196;2023-04-25T12:49:10;101670.94;;;11.15;93.89
24788;BME280;12883;52.662;5.196;2023-04-25T12:51:36;101684.94;;;11.09;90.64